createdAt,value
2018-12-21T00:00:41.628Z,7.59
2018-12-21T00:03:10.079Z,7.58
2018-12-21T00:05:38.568Z,7.54
2018-12-21T00:08:07.043Z,7.58
2018-12-21T00:10:35.611Z,7.49
2018-12-21T00:13:04.079Z,7.47
2018-12-21T00:15:32.591Z,7.53
2018-12-21T00:18:01.199Z,7.50
2018-12-21T00:20:29.673Z,7.49
2018-12-21T00:22:58.185Z,7.51
2018-12-21T00:25:26.668Z,7.47
2018-12-21T00:27:55.204Z,7.47
2018-12-21T00:30:22.949Z,7.40
2018-12-21T00:32:57.187Z,7.42
2018-12-21T00:35:30.837Z,7.44
2018-12-21T00:38:05.670Z,7.44
2018-12-21T00:40:39.668Z,7.44
2018-12-21T00:43:18.229Z,7.55
2018-12-21T00:45:50.076Z,7.46
2018-12-21T00:48:18.568Z,7.46
2018-12-21T00:50:47.068Z,7.43
2018-12-21T00:53:15.572Z,7.45
2018-12-21T00:55:44.139Z,7.48
2018-12-21T00:58:12.592Z,7.53
2018-12-21T01:00:41.176Z,7.55
2018-12-21T01:03:09.684Z,7.48
2018-12-21T01:05:38.140Z,7.45
2018-12-21T01:08:06.628Z,7.48
2018-12-21T01:10:35.113Z,7.43
2018-12-21T01:13:03.801Z,7.43
2018-12-21T01:15:32.321Z,7.44
2018-12-21T01:18:01.489Z,7.51
2018-12-21T01:20:30.111Z,7.47
2018-12-21T01:22:58.603Z,7.41
2018-12-21T01:25:27.120Z,7.39
2018-12-21T01:27:55.593Z,7.40
2018-12-21T01:30:24.246Z,7.37
2018-12-21T01:32:52.736Z,7.38
2018-12-21T01:35:21.214Z,7.36
2018-12-21T01:37:49.809Z,7.39
2018-12-21T01:40:18.284Z,7.34
2018-12-21T01:42:46.792Z,7.39
2018-12-21T01:45:15.262Z,7.44
2018-12-21T01:47:43.725Z,7.37
2018-12-21T01:50:12.211Z,7.36
2018-12-21T01:52:40.738Z,7.44
2018-12-21T01:55:09.423Z,7.35
2018-12-21T01:57:37.887Z,7.31
2018-12-21T02:00:06.961Z,7.27
2018-12-21T02:02:35.425Z,7.35
2018-12-21T02:05:03.959Z,7.30
2018-12-21T02:07:32.407Z,7.35
2018-12-21T02:10:00.863Z,7.34
2018-12-21T02:12:29.360Z,7.34
2018-12-21T02:14:57.788Z,7.27
2018-12-21T02:17:26.305Z,7.24
2018-12-21T02:19:54.772Z,7.29
2018-12-21T02:22:23.259Z,7.21
2018-12-21T02:24:51.716Z,7.19
2018-12-21T02:27:20.155Z,7.20
2018-12-21T02:29:48.744Z,7.16
2018-12-21T02:32:17.235Z,7.12
2018-12-21T02:34:45.698Z,7.14
2018-12-21T02:37:14.180Z,7.07
2018-12-21T02:39:42.660Z,7.16
2018-12-21T02:42:11.184Z,7.16
2018-12-21T02:44:39.666Z,7.14
2018-12-21T02:47:08.125Z,7.12
2018-12-21T02:49:36.652Z,7.17
2018-12-21T02:52:05.678Z,7.21
2018-12-21T02:54:34.505Z,7.23
2018-12-21T02:57:02.969Z,7.19
2018-12-21T02:59:31.432Z,7.19
2018-12-21T03:01:59.933Z,7.17
2018-12-21T03:04:28.391Z,7.17
2018-12-21T03:06:56.951Z,7.17
2018-12-21T03:09:25.424Z,7.21
2018-12-21T03:11:53.923Z,7.27
2018-12-21T03:14:22.528Z,7.36
2018-12-21T03:16:51.068Z,7.36
2018-12-21T03:19:19.511Z,7.27
2018-12-21T03:21:48.029Z,7.31
2018-12-21T03:24:16.607Z,7.29
2018-12-21T03:26:45.139Z,7.36
2018-12-21T03:29:13.660Z,7.40
2018-12-21T03:31:42.270Z,7.39
2018-12-21T03:34:10.834Z,7.38
2018-12-21T03:36:39.342Z,7.37
2018-12-21T03:39:08.694Z,7.33
2018-12-21T03:41:37.862Z,7.41
2018-12-21T03:44:06.360Z,7.38
2018-12-21T03:46:34.997Z,7.38
2018-12-21T03:49:03.475Z,7.38
2018-12-21T03:51:31.957Z,7.40
2018-12-21T03:54:00.546Z,7.48
2018-12-21T03:56:28.988Z,7.46
2018-12-21T03:58:57.484Z,7.44
2018-12-21T04:01:25.964Z,7.37
2018-12-21T04:03:54.459Z,7.35
2018-12-21T04:06:22.948Z,7.39
2018-12-21T04:08:51.451Z,7.40
2018-12-21T04:11:19.937Z,7.38
2018-12-21T04:13:48.549Z,7.37
2018-12-21T04:16:17.023Z,7.42
2018-12-21T04:18:45.515Z,7.42
2018-12-21T04:21:14.021Z,7.47
2018-12-21T04:23:42.466Z,7.40
2018-12-21T04:26:10.936Z,7.42
2018-12-21T04:28:39.424Z,7.38
2018-12-21T04:31:07.953Z,7.43
2018-12-21T04:33:36.524Z,7.43
2018-12-21T04:36:05.049Z,7.49
2018-12-21T04:38:34.392Z,7.44
2018-12-21T04:41:02.881Z,7.41
2018-12-21T04:43:31.405Z,7.41
2018-12-21T04:45:59.957Z,7.41
2018-12-21T04:48:28.396Z,7.40
2018-12-21T04:50:56.910Z,7.39
2018-12-21T04:53:25.497Z,7.37
2018-12-21T04:55:54.003Z,7.45
2018-12-21T04:58:22.489Z,7.41
2018-12-21T05:00:51.053Z,7.44
2018-12-21T05:03:19.622Z,7.48
2018-12-21T05:05:48.158Z,7.50
2018-12-21T05:08:16.784Z,7.44
2018-12-21T05:10:45.231Z,7.43
2018-12-21T05:13:13.813Z,7.43
2018-12-21T05:15:42.343Z,7.46
2018-12-21T05:18:10.861Z,7.52
2018-12-21T05:20:39.398Z,7.46
2018-12-21T05:23:07.904Z,7.50
2018-12-21T05:25:36.383Z,7.51
2018-12-21T05:28:04.900Z,7.56
2018-12-21T05:30:33.368Z,7.59
2018-12-21T05:33:01.857Z,7.58
2018-12-21T05:35:30.684Z,7.69
2018-12-21T05:37:59.131Z,7.62
2018-12-21T05:40:27.672Z,7.56
2018-12-21T05:42:56.137Z,7.49
2018-12-21T05:45:24.613Z,7.50
2018-12-21T05:47:53.682Z,7.47
2018-12-21T05:50:22.308Z,7.49
2018-12-21T05:52:50.775Z,7.47
2018-12-21T05:55:19.231Z,7.46
2018-12-21T05:57:47.736Z,7.51
2018-12-21T06:00:16.195Z,7.53
2018-12-21T06:02:44.660Z,7.54
2018-12-21T06:05:13.278Z,7.56
2018-12-21T06:07:41.755Z,7.57
2018-12-21T06:10:10.232Z,7.62
2018-12-21T06:12:38.696Z,7.64
2018-12-21T06:20:11.414Z,7.74
2018-12-21T06:22:40.068Z,7.82
2018-12-21T06:25:08.530Z,7.82
2018-12-21T06:27:37.205Z,7.75
2018-12-21T06:30:06.595Z,7.76
2018-12-21T06:32:35.079Z,7.75
2018-12-21T06:35:03.578Z,7.68
2018-12-21T06:37:32.087Z,7.78
2018-12-21T06:40:01.136Z,7.71
2018-12-21T06:42:29.732Z,7.67
2018-12-21T06:44:58.266Z,7.68
2018-12-21T06:47:26.752Z,7.63
2018-12-21T06:49:55.236Z,7.63
2018-12-21T06:52:23.806Z,7.59
2018-12-21T06:54:52.263Z,7.55
2018-12-21T06:57:20.720Z,7.55
2018-12-21T06:59:49.212Z,7.52
2018-12-21T07:02:18.199Z,7.53
2018-12-21T07:04:46.711Z,7.50
2018-12-21T07:07:15.877Z,7.51
2018-12-21T07:09:44.359Z,7.56
2018-12-21T07:12:12.832Z,7.55
2018-12-21T07:14:41.380Z,7.60
2018-12-21T07:17:10.399Z,7.61
2018-12-21T07:19:38.903Z,7.63
2018-12-21T07:22:07.396Z,7.60
2018-12-21T07:24:35.867Z,7.65
2018-12-21T07:27:04.389Z,7.62
2018-12-21T07:29:32.893Z,7.66
2018-12-21T07:32:01.391Z,7.62
2018-12-21T07:34:29.905Z,7.63
2018-12-21T07:36:58.399Z,7.66
2018-12-21T07:39:26.839Z,7.67
2018-12-21T07:41:55.381Z,7.70
2018-12-21T07:44:23.887Z,7.71
2018-12-21T07:46:52.448Z,7.70
2018-12-21T07:49:21.045Z,7.71
2018-12-21T07:51:49.552Z,7.76
2018-12-21T07:54:18.052Z,7.79
2018-12-21T07:56:46.519Z,7.78
2018-12-21T07:59:15.070Z,7.73
2018-12-21T08:01:44.362Z,7.70
2018-12-21T08:04:12.940Z,7.72
2018-12-21T08:06:41.419Z,7.71
2018-12-21T08:09:09.923Z,7.69
2018-12-21T08:11:38.449Z,7.72
2018-12-21T08:14:06.993Z,7.71
2018-12-21T08:16:35.472Z,7.73
2018-12-21T08:19:03.985Z,7.76
2018-12-21T08:21:32.504Z,7.73
2018-12-21T08:24:01.094Z,7.74
2018-12-21T08:26:29.649Z,7.72
2018-12-21T08:28:58.200Z,7.75
2018-12-21T08:31:26.659Z,7.77
2018-12-21T08:33:55.104Z,7.82
2018-12-21T08:36:23.796Z,7.78
2018-12-21T08:38:52.309Z,7.81
2018-12-21T08:41:20.888Z,7.81
2018-12-21T08:43:49.561Z,7.81
2018-12-21T08:46:18.065Z,7.83
2018-12-21T08:48:46.531Z,7.83
2018-12-21T08:51:15.076Z,7.83
2018-12-21T08:53:43.624Z,7.81
2018-12-21T08:56:12.370Z,7.84
2018-12-21T08:58:43.931Z,7.84
2018-12-21T09:01:12.472Z,7.91
2018-12-21T09:03:40.959Z,7.93
2018-12-21T09:06:09.464Z,7.98
2018-12-21T09:08:37.934Z,8.03
2018-12-21T09:11:06.456Z,8.11
2018-12-21T09:13:34.912Z,8.20
2018-12-21T09:16:03.469Z,8.27
2018-12-21T09:18:32.149Z,8.37
2018-12-21T09:21:00.672Z,8.30
2018-12-21T09:23:29.223Z,8.38
2018-12-21T09:25:57.743Z,8.38
2018-12-21T09:28:26.220Z,8.44
2018-12-21T09:30:54.704Z,8.44
2018-12-21T09:33:23.159Z,8.50
2018-12-21T09:35:51.758Z,8.50
2018-12-21T09:38:20.474Z,8.52
2018-12-21T09:40:48.980Z,8.66
2018-12-21T09:43:17.456Z,8.65
2018-12-21T09:45:46.107Z,8.71
2018-12-21T09:48:14.597Z,8.79
2018-12-21T09:50:43.112Z,8.84
2018-12-21T09:53:11.608Z,8.95
2018-12-21T09:55:40.244Z,8.99
2018-12-21T09:58:08.720Z,9.01
2018-12-21T10:00:37.208Z,9.07
2018-12-21T10:03:05.717Z,9.12
2018-12-21T10:05:34.232Z,9.23
2018-12-21T10:08:02.756Z,9.34
2018-12-21T10:10:31.285Z,9.30
2018-12-21T10:12:59.792Z,9.24
2018-12-21T10:15:28.300Z,9.30
2018-12-21T10:17:56.828Z,9.34
2018-12-21T10:20:25.293Z,9.32
2018-12-21T10:22:53.920Z,9.27
2018-12-21T10:25:22.535Z,9.28
2018-12-21T10:27:51.015Z,9.33
2018-12-21T10:30:25.687Z,9.39
2018-12-21T10:32:54.172Z,9.35
2018-12-21T10:35:22.735Z,9.29
2018-12-21T10:37:51.207Z,9.30
2018-12-21T10:40:19.686Z,9.30
2018-12-21T10:42:48.405Z,9.35
2018-12-21T10:45:17.024Z,9.38
2018-12-21T10:47:45.546Z,9.40
2018-12-21T10:50:14.105Z,9.46
2018-12-21T10:52:42.623Z,9.47
2018-12-21T10:55:11.105Z,9.50
2018-12-21T10:57:39.613Z,9.50
2018-12-21T11:00:10.874Z,9.57
2018-12-21T11:02:39.361Z,9.57
2018-12-21T11:05:08.877Z,9.58
2018-12-21T11:07:37.511Z,9.54
2018-12-21T11:10:10.636Z,9.66
2018-12-21T11:12:39.103Z,9.63
2018-12-21T11:15:08.385Z,9.63
2018-12-21T11:17:36.883Z,9.62
2018-12-21T11:20:07.132Z,9.70
2018-12-21T11:22:35.660Z,9.72
2018-12-21T11:25:04.803Z,9.75
2018-12-21T11:27:33.391Z,9.79
2018-12-21T11:30:01.882Z,9.89
2018-12-21T11:32:30.426Z,9.93
2018-12-21T11:34:58.977Z,9.98
2018-12-21T11:37:27.441Z,10.01
2018-12-21T11:39:55.961Z,10.02
2018-12-21T11:42:24.426Z,10.09
2018-12-21T11:44:52.931Z,10.11
2018-12-21T11:47:21.470Z,10.13
2018-12-21T11:49:49.991Z,10.18
2018-12-21T11:52:18.661Z,10.26
2018-12-21T11:54:47.148Z,10.24
2018-12-21T11:57:15.717Z,10.31
2018-12-21T11:59:45.024Z,10.39
2018-12-21T12:02:19.418Z,10.43
2018-12-21T12:04:44.357Z,10.51
2018-12-21T12:07:13.052Z,10.52
2018-12-21T12:09:41.504Z,10.59
2018-12-21T12:12:10.092Z,10.61
2018-12-21T12:14:38.597Z,10.65
2018-12-21T12:17:07.099Z,10.74
2018-12-21T12:19:35.595Z,10.81
2018-12-21T12:22:04.172Z,10.92
2018-12-21T12:24:32.689Z,10.95
2018-12-21T12:27:01.171Z,10.94
2018-12-21T12:29:30.247Z,10.97
2018-12-21T12:31:58.721Z,11.03
2018-12-21T12:34:27.507Z,11.04
2018-12-21T12:36:58.006Z,11.07
2018-12-21T12:39:26.591Z,11.07
2018-12-21T12:41:55.082Z,11.08
2018-12-21T12:44:23.586Z,11.10
2018-12-21T12:46:52.056Z,11.15
2018-12-21T12:49:20.572Z,11.21
2018-12-21T12:51:49.094Z,11.22
2018-12-21T12:54:17.573Z,11.26
2018-12-21T12:56:46.025Z,11.28
2018-12-21T12:59:14.481Z,11.32
2018-12-21T13:01:43.147Z,11.32
2018-12-21T13:04:11.639Z,11.33
2018-12-21T13:06:40.132Z,11.39
2018-12-21T13:09:08.668Z,11.42
2018-12-21T13:11:38.131Z,11.40
2018-12-21T13:14:06.644Z,11.42
2018-12-21T13:16:35.267Z,11.44
2018-12-21T13:19:03.772Z,11.43
2018-12-21T13:21:32.271Z,11.44
2018-12-21T13:24:00.912Z,11.45
2018-12-21T13:26:29.364Z,11.46
2018-12-21T13:28:57.911Z,11.45
2018-12-21T13:31:26.589Z,11.44
2018-12-21T13:33:55.136Z,11.43
2018-12-21T13:36:23.657Z,11.43
2018-12-21T13:38:52.156Z,11.44
2018-12-21T13:41:20.647Z,11.42
2018-12-21T13:43:49.171Z,11.44
2018-12-21T13:46:17.728Z,11.43
2018-12-21T13:48:46.308Z,11.42
2018-12-21T13:51:14.851Z,11.43
2018-12-21T13:53:43.370Z,11.42
2018-12-21T13:56:12.039Z,11.43
2018-12-21T13:58:40.504Z,11.40
2018-12-21T14:01:08.966Z,11.39
2018-12-21T14:03:37.478Z,11.38
2018-12-21T14:06:05.928Z,11.35
2018-12-21T14:08:34.490Z,11.36
2018-12-21T14:11:03.006Z,11.31
2018-12-21T14:13:31.533Z,11.31
2018-12-21T14:16:00.173Z,11.29
2018-12-21T14:18:29.576Z,11.26
2018-12-21T14:20:58.071Z,11.28
2018-12-21T14:23:26.641Z,11.23
2018-12-21T14:25:55.186Z,11.24
2018-12-21T14:28:23.706Z,11.22
2018-12-21T14:30:52.922Z,11.23
2018-12-21T14:33:21.536Z,11.20
2018-12-21T14:35:50.113Z,11.19
2018-12-21T14:38:18.658Z,11.19
2018-12-21T14:40:47.219Z,11.14
2018-12-21T14:43:15.918Z,11.14
2018-12-21T14:45:44.633Z,11.10
2018-12-21T14:48:13.179Z,11.06
2018-12-21T14:50:42.372Z,11.03
2018-12-21T14:53:10.873Z,11.00
2018-12-21T14:55:39.580Z,10.99
2018-12-21T14:58:08.455Z,10.97
2018-12-21T15:00:37.013Z,10.95
2018-12-21T15:03:06.450Z,10.96
2018-12-21T15:05:35.070Z,10.93
2018-12-21T15:08:03.621Z,10.90
2018-12-21T15:10:32.144Z,10.87
2018-12-21T15:13:00.631Z,10.85
2018-12-21T15:15:29.200Z,10.80
2018-12-21T15:17:57.758Z,10.78
2018-12-21T15:20:26.289Z,10.76
2018-12-21T15:22:54.756Z,10.78
2018-12-21T15:25:23.359Z,10.78
2018-12-21T15:27:51.916Z,10.71
2018-12-21T15:30:20.907Z,10.64
2018-12-21T15:32:49.344Z,10.59
2018-12-21T15:35:17.895Z,10.50
2018-12-21T15:37:46.368Z,10.42
2018-12-21T15:40:14.940Z,10.39
2018-12-21T15:42:43.439Z,10.35
2018-12-21T15:45:11.954Z,10.29
2018-12-21T15:47:40.407Z,10.27
2018-12-21T15:50:11.567Z,10.25
2018-12-21T15:52:41.396Z,10.22
2018-12-21T15:55:09.947Z,10.19
2018-12-21T15:57:39.607Z,10.13
2018-12-21T16:00:11.455Z,10.14
2018-12-21T16:02:41.155Z,10.15
2018-12-21T16:05:09.635Z,10.11
2018-12-21T16:07:38.156Z,10.09
2018-12-21T16:10:08.278Z,10.09
2018-12-21T16:12:36.819Z,10.07
2018-12-21T16:15:05.679Z,10.02
2018-12-21T16:17:34.187Z,9.95
2018-12-21T16:20:03.238Z,9.89
2018-12-21T16:22:31.723Z,9.87
2018-12-21T16:25:00.223Z,9.95
2018-12-21T16:27:30.669Z,9.90
2018-12-21T16:30:00.023Z,9.87
2018-12-21T16:32:28.945Z,9.85
2018-12-21T16:34:57.574Z,9.77
2018-12-21T16:37:26.148Z,9.71
2018-12-21T16:39:54.585Z,9.68
2018-12-21T16:42:23.032Z,9.62
2018-12-21T16:44:51.533Z,9.62
2018-12-21T16:47:20.065Z,9.55
2018-12-21T16:49:48.549Z,9.52
2018-12-21T16:52:17.039Z,9.48
2018-12-21T16:54:45.773Z,9.46
2018-12-21T16:57:14.211Z,9.44
2018-12-21T16:59:42.797Z,9.35
2018-12-21T17:02:12.161Z,9.35
2018-12-21T17:04:40.622Z,9.34
2018-12-21T17:07:09.166Z,9.29
2018-12-21T17:09:37.696Z,9.24
2018-12-21T17:12:06.199Z,9.21
2018-12-21T17:14:34.781Z,9.20
2018-12-21T17:17:05.051Z,9.15
2018-12-21T17:19:33.780Z,9.12
2018-12-21T17:22:02.452Z,9.11
2018-12-21T17:24:37.702Z,9.14
2018-12-21T17:27:06.205Z,9.11
2018-12-21T17:29:34.720Z,9.12
2018-12-21T17:32:03.313Z,9.10
2018-12-21T17:34:31.965Z,9.12
2018-12-21T17:37:00.452Z,9.07
2018-12-21T17:39:28.925Z,9.07
2018-12-21T17:42:04.025Z,9.12
2018-12-21T17:44:32.550Z,9.14
2018-12-21T17:47:01.017Z,9.17
2018-12-21T17:49:29.524Z,9.14
2018-12-21T17:52:01.539Z,9.16
2018-12-21T17:54:28.738Z,9.18
2018-12-21T17:56:57.329Z,9.22
2018-12-21T17:59:25.838Z,9.21
2018-12-21T18:01:54.665Z,9.22
2018-12-21T18:04:27.592Z,9.23
2018-12-21T18:06:56.192Z,9.26
2018-12-21T18:09:26.692Z,9.29
2018-12-21T18:11:57.269Z,9.30
2018-12-21T18:14:25.819Z,9.31
2018-12-21T18:16:54.285Z,9.35
2018-12-21T18:19:22.897Z,9.33
2018-12-21T18:21:56.707Z,9.30
2018-12-21T18:24:26.325Z,9.30
2018-12-21T18:26:54.803Z,9.29
2018-12-21T18:29:24.013Z,9.28
2018-12-21T18:31:59.525Z,9.27
2018-12-21T18:34:34.788Z,9.22
2018-12-21T18:37:05.440Z,9.22
2018-12-21T18:39:33.934Z,9.27
2018-12-21T18:42:02.513Z,9.23
2018-12-21T18:44:31.161Z,9.20
2018-12-21T18:46:59.611Z,9.18
2018-12-21T18:49:28.959Z,9.16
2018-12-21T18:51:59.775Z,9.11
2018-12-21T18:54:29.112Z,9.10
2018-12-21T18:57:16.050Z,9.07
2018-12-21T18:59:44.563Z,9.02
2018-12-21T19:02:13.229Z,9.04
2018-12-21T19:04:41.719Z,9.00
2018-12-21T19:07:10.388Z,8.97
2018-12-21T19:09:40.934Z,8.98
2018-12-21T19:12:09.541Z,9.01
2018-12-21T19:14:38.271Z,8.98
2018-12-21T19:17:06.933Z,8.99
2018-12-21T19:19:35.504Z,9.00
2018-12-21T19:22:03.983Z,8.99
2018-12-21T19:24:32.731Z,8.97
2018-12-21T19:27:01.208Z,8.97
2018-12-21T19:29:30.173Z,8.95
2018-12-21T19:31:59.300Z,8.93
2018-12-21T19:34:28.006Z,8.92
2018-12-21T19:36:56.539Z,8.88
2018-12-21T19:39:25.082Z,8.89
2018-12-21T19:41:53.654Z,8.86
2018-12-21T19:44:22.149Z,8.85
2018-12-21T19:46:50.617Z,8.85
2018-12-21T19:49:19.297Z,8.82
2018-12-21T19:51:47.895Z,8.78
2018-12-21T19:54:19.416Z,8.77
2018-12-21T19:56:53.036Z,8.73
2018-12-21T19:59:22.034Z,8.71
2018-12-21T20:01:50.796Z,8.70
2018-12-21T20:04:19.609Z,8.68
2018-12-21T20:06:48.064Z,8.70
2018-12-21T20:09:16.549Z,8.71
2018-12-21T20:11:45.089Z,8.71
2018-12-21T20:14:13.665Z,8.70
2018-12-21T20:16:42.364Z,8.68
2018-12-21T20:19:10.885Z,8.65
2018-12-21T20:21:40.200Z,8.57
2018-12-21T20:24:08.849Z,8.50
2018-12-21T20:26:37.519Z,8.51
2018-12-21T20:29:06.090Z,8.46
2018-12-21T20:31:35.249Z,8.38
2018-12-21T20:34:03.840Z,8.33
2018-12-21T20:36:32.370Z,8.31
2018-12-21T20:39:00.980Z,8.24
2018-12-21T20:41:29.624Z,8.18
2018-12-21T20:43:58.165Z,8.12
2018-12-21T20:46:27.524Z,8.08
2018-12-21T20:48:56.300Z,8.06
2018-12-21T20:51:25.012Z,8.04
2018-12-21T20:53:54.164Z,8.02
2018-12-21T20:56:22.721Z,8.00
2018-12-21T20:58:56.285Z,8.01
2018-12-21T21:01:25.179Z,7.94
2018-12-21T21:03:53.690Z,7.91
2018-12-21T21:06:22.192Z,7.89
2018-12-21T21:08:50.745Z,7.86
2018-12-21T21:11:24.328Z,7.86
2018-12-21T21:13:50.285Z,7.83
2018-12-21T21:16:18.928Z,7.81
2018-12-21T21:18:47.428Z,7.78
2018-12-21T21:21:16.088Z,7.77
2018-12-21T21:23:44.585Z,7.74
2018-12-21T21:26:13.076Z,7.75
2018-12-21T21:28:41.743Z,7.74
2018-12-21T21:31:10.211Z,7.73
2018-12-21T21:33:38.713Z,7.74
2018-12-21T21:36:07.350Z,7.70
2018-12-21T21:38:35.877Z,7.67
2018-12-21T21:41:04.527Z,7.67
2018-12-21T21:43:32.996Z,7.67
2018-12-21T21:46:01.501Z,7.66
2018-12-21T21:48:30.165Z,7.62
2018-12-21T21:50:58.736Z,7.72
2018-12-21T21:53:27.190Z,7.88
2018-12-21T21:55:55.730Z,7.84
2018-12-21T21:58:24.314Z,7.72
2018-12-21T22:00:53.013Z,7.65
2018-12-21T22:03:21.511Z,7.62
2018-12-21T22:05:50.048Z,7.61
2018-12-21T22:08:18.554Z,7.61
2018-12-21T22:10:47.015Z,7.61
2018-12-21T22:13:15.511Z,7.59
2018-12-21T22:15:44.032Z,7.58
2018-12-21T22:18:12.747Z,7.57
2018-12-21T22:20:41.241Z,7.59
2018-12-21T22:23:09.711Z,7.59
2018-12-21T22:25:38.351Z,7.61
2018-12-21T22:28:06.825Z,7.62
2018-12-21T22:30:35.376Z,7.60
2018-12-21T22:33:03.857Z,7.64
2018-12-21T22:35:32.337Z,7.65
2018-12-21T22:38:00.981Z,7.65
2018-12-21T22:40:29.473Z,7.65
2018-12-21T22:42:57.979Z,7.66
2018-12-21T22:45:26.459Z,7.67
2018-12-21T22:47:55.037Z,7.71
2018-12-21T22:50:23.561Z,7.67
2018-12-21T22:52:52.040Z,7.72
2018-12-21T22:55:20.508Z,7.69
2018-12-21T22:57:56.288Z,7.67
2018-12-21T23:00:28.248Z,7.72
2018-12-21T23:02:56.796Z,7.69
2018-12-21T23:05:25.313Z,7.68
2018-12-21T23:07:53.792Z,7.74
2018-12-21T23:10:22.330Z,7.72
2018-12-21T23:12:50.832Z,7.78
2018-12-21T23:15:20.093Z,7.80
2018-12-21T23:17:48.590Z,7.77
2018-12-21T23:20:17.090Z,7.73
2018-12-21T23:22:45.536Z,7.76
2018-12-21T23:25:14.229Z,7.73
2018-12-21T23:27:42.907Z,7.74
2018-12-21T23:30:11.415Z,7.71
2018-12-21T23:32:39.912Z,7.79
2018-12-21T23:35:08.874Z,7.72
2018-12-21T23:37:37.390Z,7.69
2018-12-21T23:40:07.436Z,7.68
2018-12-21T23:42:35.953Z,7.70
2018-12-21T23:45:04.766Z,7.65
2018-12-21T23:47:33.292Z,7.65
2018-12-21T23:50:01.916Z,7.68
2018-12-21T23:52:30.371Z,7.69
2018-12-21T23:54:58.823Z,7.62
2018-12-21T23:57:27.459Z,7.63
2018-12-21T23:59:55.943Z,7.64
